createdAt,value
2018-12-25T00:00:15.544Z,99229.98
2018-12-25T00:02:48.345Z,99246.98
2018-12-25T00:05:21.404Z,99253.98
2018-12-25T00:07:54.418Z,99251.12
2018-12-25T00:10:27.730Z,99256.52
2018-12-25T00:13:01.019Z,99263.45
2018-12-25T00:15:34.279Z,99261.83
2018-12-25T00:18:07.800Z,99269.42
2018-12-25T00:20:40.946Z,99277.09
2018-12-25T00:23:14.098Z,99264.71
2018-12-25T00:25:47.215Z,99279.98
2018-12-25T00:28:20.326Z,99288.95
2018-12-25T00:30:53.116Z,99282.05
2018-12-25T00:33:26.545Z,99297.98
2018-12-25T00:35:59.826Z,99300.89
2018-12-25T00:38:32.811Z,99310.98
2018-12-25T00:41:05.825Z,99309.39
2018-12-25T00:43:39.248Z,99314.36
2018-12-25T00:46:12.536Z,99318.72
2018-12-25T00:48:45.433Z,99324.22
2018-12-25T00:51:18.327Z,99334.66
2018-12-25T00:53:51.271Z,99339.48
2018-12-25T00:56:24.669Z,99347.97
2018-12-25T00:58:57.917Z,99358.94
2018-12-25T01:01:31.063Z,99368.20
2018-12-25T01:04:04.084Z,99376.98
2018-12-25T01:06:37.111Z,99383.79
2018-12-25T01:09:13.395Z,99389.25
2018-12-25T01:11:46.726Z,99396.36
2018-12-25T01:14:19.894Z,99399.84
2018-12-25T01:16:54.034Z,99402.55
2018-12-25T01:19:27.035Z,99413.81
2018-12-25T01:22:00.116Z,99412.13
2018-12-25T01:24:32.981Z,99416.94
2018-12-25T01:27:06.142Z,99419.41
2018-12-25T01:29:39.325Z,99426.58
2018-12-25T01:32:12.543Z,99435.72
2018-12-25T01:34:45.521Z,99442.35
2018-12-25T01:37:18.438Z,99442.67
2018-12-25T01:39:51.504Z,99441.83
2018-12-25T01:42:24.659Z,99446.80
2018-12-25T01:45:00.322Z,99453.12
2018-12-25T01:47:32.308Z,99454.92
2018-12-25T01:50:05.537Z,99463.58
2018-12-25T01:52:38.399Z,99477.68
2018-12-25T01:55:11.324Z,99477.49
2018-12-25T01:57:44.408Z,99480.33
2018-12-25T02:00:17.300Z,99490.30
2018-12-25T02:02:50.689Z,99485.61
2018-12-25T02:05:23.584Z,99477.95
2018-12-25T02:07:56.731Z,99492.53
2018-12-25T02:10:29.730Z,99491.89
2018-12-25T02:13:03.318Z,99495.06
2018-12-25T02:15:36.378Z,99501.12
2018-12-25T02:18:10.163Z,99503.22
2018-12-25T02:20:43.287Z,99500.23
2018-12-25T02:23:16.548Z,99497.23
2018-12-25T02:25:49.720Z,99499.70
2018-12-25T02:28:22.735Z,99506.78
2018-12-25T02:30:55.687Z,99518.81
2018-12-25T02:33:28.692Z,99516.63
2018-12-25T02:36:02.890Z,99518.09
2018-12-25T02:38:37.048Z,99519.76
2018-12-25T02:41:11.414Z,99534.73
2018-12-25T02:43:45.912Z,99533.88
2018-12-25T02:46:20.053Z,99541.21
2018-12-25T02:48:54.138Z,99540.73
2018-12-25T02:51:28.615Z,99542.91
2018-12-25T02:54:01.942Z,99541.22
2018-12-25T02:56:35.841Z,99536.83
2018-12-25T02:59:09.437Z,99536.72
2018-12-25T03:02:01.931Z,99540.34
2018-12-25T03:04:35.033Z,99543.45
2018-12-25T03:07:08.334Z,99546.38
2018-12-25T03:09:41.737Z,99552.88
2018-12-25T03:12:14.889Z,99553.16
2018-12-25T03:14:48.409Z,99566.44
2018-12-25T03:17:21.586Z,99551.13
2018-12-25T03:19:59.785Z,99554.05
2018-12-25T03:22:28.603Z,99566.72
2018-12-25T03:25:01.670Z,99567.13
2018-12-25T03:27:34.565Z,99571.29
2018-12-25T03:30:07.946Z,99569.61
2018-12-25T03:32:41.009Z,99570.03
2018-12-25T03:35:14.762Z,99574.19
2018-12-25T03:37:47.709Z,99573.30
2018-12-25T03:40:20.841Z,99564.83
2018-12-25T03:42:54.950Z,99567.06
2018-12-25T03:45:28.188Z,99568.48
2018-12-25T03:48:01.457Z,99566.28
2018-12-25T03:50:34.514Z,99572.68
2018-12-25T03:53:07.636Z,99572.69
2018-12-25T03:55:41.858Z,99577.69
2018-12-25T03:58:14.822Z,99574.21
2018-12-25T04:00:47.774Z,99575.36
2018-12-25T04:03:20.997Z,99580.11
2018-12-25T04:05:54.019Z,99583.30
2018-12-25T04:08:27.091Z,99584.05
2018-12-25T04:11:00.151Z,99580.94
2018-12-25T04:13:33.169Z,99581.71
2018-12-25T04:16:06.568Z,99577.72
2018-12-25T04:18:39.542Z,99585.17
2018-12-25T04:21:12.800Z,99590.44
2018-12-25T04:23:45.833Z,99594.63
2018-12-25T04:26:18.842Z,99591.65
2018-12-25T04:28:51.602Z,99597.91
2018-12-25T04:31:24.752Z,99597.91
2018-12-25T04:33:58.537Z,99593.70
2018-12-25T04:36:32.310Z,99589.30
2018-12-25T04:39:06.282Z,99589.23
2018-12-25T04:41:39.203Z,99591.22
2018-12-25T04:44:12.699Z,99590.05
2018-12-25T04:46:46.007Z,99586.78
2018-12-25T04:49:19.117Z,99594.83
2018-12-25T04:51:52.171Z,99593.50
2018-12-25T04:54:25.270Z,99596.72
2018-12-25T04:56:58.660Z,99596.84
2018-12-25T04:59:31.898Z,99599.28
2018-12-25T05:02:04.911Z,99614.42
2018-12-25T05:04:37.915Z,99604.04
2018-12-25T05:07:11.039Z,99615.25
2018-12-25T05:09:44.019Z,99619.42
2018-12-25T05:12:17.034Z,99610.61
2018-12-25T05:14:50.094Z,99614.45
2018-12-25T05:17:23.711Z,99618.20
2018-12-25T05:19:56.820Z,99633.45
2018-12-25T05:22:29.794Z,99630.83
2018-12-25T05:25:02.871Z,99637.78
2018-12-25T05:27:35.729Z,99646.69
2018-12-25T05:30:09.374Z,99648.73
2018-12-25T05:32:42.676Z,99653.06
2018-12-25T05:35:16.064Z,99646.11
2018-12-25T05:37:50.021Z,99655.34
2018-12-25T05:40:23.563Z,99655.97
2018-12-25T05:42:56.584Z,99663.80
2018-12-25T05:45:29.713Z,99667.67
2018-12-25T05:48:02.515Z,99670.89
2018-12-25T05:50:35.571Z,99680.02
2018-12-25T05:53:08.548Z,99692.88
2018-12-25T05:55:41.564Z,99698.59
2018-12-25T05:58:14.468Z,99707.00
2018-12-25T06:00:52.502Z,99702.77
2018-12-25T06:03:25.393Z,99723.05
2018-12-25T06:05:59.482Z,99722.05
2018-12-25T06:08:32.795Z,99728.05
2018-12-25T06:11:06.029Z,99720.09
2018-12-25T06:13:39.359Z,99727.90
2018-12-25T06:16:12.480Z,99734.36
2018-12-25T06:18:45.499Z,99749.00
2018-12-25T06:21:18.432Z,99739.36
2018-12-25T06:23:51.755Z,99745.70
2018-12-25T06:26:24.908Z,99744.70
2018-12-25T06:28:57.986Z,99753.83
2018-12-25T06:31:31.140Z,99757.98
2018-12-25T06:34:04.375Z,99758.66
2018-12-25T06:36:37.474Z,99760.95
2018-12-25T06:39:10.485Z,99767.27
2018-12-25T06:41:43.551Z,99772.40
2018-12-25T06:44:16.566Z,99786.67
2018-12-25T06:46:49.715Z,99774.17
2018-12-25T06:49:22.802Z,99779.95
2018-12-25T06:51:55.878Z,99784.69
2018-12-25T06:54:28.906Z,99775.39
2018-12-25T06:57:01.911Z,99790.99
2018-12-25T06:59:34.812Z,99799.93
2018-12-25T07:02:07.830Z,99793.44
2018-12-25T07:04:41.108Z,99795.30
2018-12-25T07:07:14.081Z,99794.09
2018-12-25T07:09:46.939Z,99812.77
2018-12-25T07:12:19.770Z,99810.36
2018-12-25T07:14:52.954Z,99811.52
2018-12-25T07:17:26.532Z,99819.68
2018-12-25T07:19:59.181Z,99824.00
2018-12-25T07:22:32.319Z,99831.41
2018-12-25T07:25:05.340Z,99846.66
2018-12-25T07:27:38.986Z,99841.28
2018-12-25T07:30:12.424Z,99845.41
2018-12-25T07:32:45.396Z,99858.98
2018-12-25T07:35:18.422Z,99863.72
2018-12-25T07:37:51.417Z,99861.84
2018-12-25T07:40:24.189Z,99870.34
2018-12-25T07:42:57.294Z,99876.72
2018-12-25T07:45:30.810Z,99879.72
2018-12-25T07:48:03.774Z,99888.22
2018-12-25T07:50:36.640Z,99888.98
2018-12-25T07:53:09.653Z,99898.02
2018-12-25T07:55:42.842Z,99916.58
2018-12-25T07:58:15.838Z,99925.05
2018-12-25T08:00:49.025Z,99929.92
2018-12-25T08:03:30.683Z,99942.16
2018-12-25T08:06:03.854Z,99932.15
2018-12-25T08:08:37.037Z,99941.18
2018-12-25T08:11:09.980Z,99932.77
2018-12-25T08:13:43.177Z,99943.61
2018-12-25T08:16:16.157Z,99947.87
2018-12-25T08:18:49.119Z,99950.86
2018-12-25T08:21:29.055Z,99946.73
2018-12-25T08:23:56.491Z,99939.70
2018-12-25T08:26:29.640Z,99951.33
2018-12-25T08:29:02.546Z,99956.05
2018-12-25T08:31:36.449Z,99969.90
2018-12-25T08:34:09.917Z,99965.40
2018-12-25T08:36:43.119Z,99959.92
2018-12-25T08:39:15.864Z,99962.52
2018-12-25T08:41:48.873Z,99970.89
2018-12-25T08:44:21.835Z,99979.48
2018-12-25T08:46:54.744Z,99982.24
2018-12-25T08:49:27.730Z,99981.91
2018-12-25T08:52:00.893Z,99980.28
2018-12-25T08:54:33.984Z,99989.98
2018-12-25T08:57:06.794Z,99989.22
2018-12-25T08:59:39.724Z,99998.00
2018-12-25T09:02:12.860Z,100009.41
2018-12-25T09:04:45.880Z,100011.20
2018-12-25T09:07:18.907Z,100024.28
2018-12-25T09:09:52.061Z,100020.71
2018-12-25T09:12:25.114Z,100030.25
2018-12-25T09:14:58.132Z,100022.00
2018-12-25T09:17:30.952Z,100020.56
2018-12-25T09:20:03.885Z,100014.91
2018-12-25T09:22:36.901Z,100017.30
2018-12-25T09:25:10.787Z,100016.55
2018-12-25T09:27:44.317Z,100019.23
2018-12-25T09:30:17.394Z,100018.11
2018-12-25T09:32:50.843Z,100025.66
2018-12-25T09:35:24.715Z,100037.52
2018-12-25T09:37:57.774Z,100033.98
2018-12-25T09:40:30.852Z,100033.98
2018-12-25T09:43:03.912Z,100044.39
2018-12-25T09:45:37.068Z,100048.12
2018-12-25T09:48:13.414Z,100038.91
2018-12-25T09:50:44.930Z,100037.09
2018-12-25T09:53:17.967Z,100032.94
2018-12-25T09:55:50.949Z,100046.11
2018-12-25T09:58:25.005Z,100044.56
2018-12-25T10:00:58.062Z,100054.41
2018-12-25T10:03:31.236Z,100053.33
2018-12-25T10:06:04.251Z,100042.63
2018-12-25T10:08:37.364Z,100072.48
2018-12-25T10:11:10.432Z,100063.15
2018-12-25T10:13:43.492Z,100073.20
2018-12-25T10:16:16.417Z,100085.29
2018-12-25T10:18:49.584Z,100086.02
2018-12-25T10:21:22.344Z,100083.98
2018-12-25T10:23:56.338Z,100087.59
2018-12-25T10:26:29.577Z,100099.69
2018-12-25T10:29:02.703Z,100105.53
2018-12-25T10:31:39.669Z,100112.96
2018-12-25T10:34:19.702Z,100115.09
2018-12-25T10:37:09.617Z,100126.22
2018-12-25T10:39:43.658Z,100121.32
2018-12-25T10:42:16.724Z,100132.32
2018-12-25T10:44:49.871Z,100133.77
2018-12-25T10:47:23.230Z,100138.82
2018-12-25T10:49:56.323Z,100146.93
2018-12-25T10:52:29.345Z,100137.92
2018-12-25T10:55:02.421Z,100137.92
2018-12-25T10:57:35.496Z,100160.09
2018-12-25T11:00:13.747Z,100160.09
2018-12-25T11:02:47.037Z,100156.72
2018-12-25T11:05:20.569Z,100168.06
2018-12-25T11:07:53.756Z,100164.33
2018-12-25T11:10:26.811Z,100164.82
2018-12-25T11:12:59.888Z,100169.50
2018-12-25T11:15:33.016Z,100170.64
2018-12-25T11:18:06.241Z,100170.64
2018-12-25T11:20:39.311Z,100181.61
2018-12-25T11:23:12.312Z,100189.23
2018-12-25T11:25:46.222Z,100191.06
2018-12-25T11:28:19.463Z,100187.35
2018-12-25T11:30:52.401Z,100187.35
2018-12-25T11:33:25.509Z,100195.33
2018-12-25T11:35:58.639Z,100192.30
2018-12-25T11:38:31.642Z,100215.70
2018-12-25T11:41:05.311Z,100215.01
2018-12-25T11:43:38.674Z,100224.78
2018-12-25T11:46:11.637Z,100219.92
2018-12-25T11:48:44.762Z,100218.08
2018-12-25T11:51:17.759Z,100231.57
2018-12-25T11:53:50.729Z,100231.57
2018-12-25T11:56:23.837Z,100230.94
2018-12-25T11:58:56.821Z,100226.52
2018-12-25T12:01:33.815Z,100245.97
2018-12-25T12:04:06.857Z,100231.42
2018-12-25T12:06:40.154Z,100241.50
2018-12-25T12:09:13.318Z,100241.50
2018-12-25T12:11:46.457Z,100240.08
2018-12-25T12:14:19.527Z,100255.44
2018-12-25T12:16:52.580Z,100250.92
2018-12-25T12:19:25.540Z,100242.33
2018-12-25T12:21:58.913Z,100250.17
2018-12-25T12:24:32.615Z,100247.34
2018-12-25T12:27:05.756Z,100240.41
2018-12-25T12:29:38.727Z,100244.52
2018-12-25T12:32:12.751Z,100243.52
2018-12-25T12:34:45.795Z,100243.52
2018-12-25T12:37:18.898Z,100248.94
2018-12-25T12:39:51.992Z,100248.77
2018-12-25T12:42:25.419Z,100257.14
2018-12-25T12:44:58.876Z,100258.82
2018-12-25T12:47:31.920Z,100275.70
2018-12-25T12:50:05.921Z,100265.26
2018-12-25T12:52:45.396Z,100284.81
2018-12-25T12:55:13.168Z,100279.95
2018-12-25T12:57:46.208Z,100283.88
2018-12-25T13:00:19.327Z,100284.95
2018-12-25T13:02:52.350Z,100281.67
2018-12-25T13:05:25.597Z,100290.97
2018-12-25T13:07:58.648Z,100282.89
2018-12-25T13:10:31.703Z,100279.16
2018-12-25T13:13:04.756Z,100292.88
2018-12-25T13:15:37.868Z,100292.88
2018-12-25T13:18:10.967Z,100300.16
2018-12-25T13:20:44.238Z,100307.05
2018-12-25T13:23:17.702Z,100310.05
2018-12-25T13:25:51.171Z,100294.28
2018-12-25T13:28:24.810Z,100306.25
2018-12-25T13:30:57.448Z,100311.92
2018-12-25T13:33:30.623Z,100311.31
2018-12-25T13:36:03.916Z,100302.30
2018-12-25T13:38:36.988Z,100315.48
2018-12-25T13:41:10.454Z,100303.58
2018-12-25T13:43:43.467Z,100314.97
2018-12-25T13:46:16.543Z,100313.36
2018-12-25T13:48:50.006Z,100308.48
2018-12-25T13:51:22.944Z,100314.15
2018-12-25T13:53:55.790Z,100325.71
2018-12-25T13:56:28.780Z,100327.68
2018-12-25T13:59:01.805Z,100331.39
2018-12-25T14:01:34.702Z,100336.83
2018-12-25T14:04:07.804Z,100328.90
2018-12-25T14:06:40.800Z,100328.27
2018-12-25T14:09:13.971Z,100336.80
2018-12-25T14:11:46.980Z,100335.27
2018-12-25T14:14:20.223Z,100337.89
2018-12-25T14:16:53.244Z,100341.05
2018-12-25T14:19:26.600Z,100345.45
2018-12-25T14:21:59.793Z,100343.05
2018-12-25T14:24:32.907Z,100344.52
2018-12-25T14:27:05.927Z,100337.94
2018-12-25T14:29:38.922Z,100344.29
2018-12-25T14:32:11.523Z,100348.11
2018-12-25T14:34:44.434Z,100349.87
2018-12-25T14:37:17.400Z,100344.41
2018-12-25T14:39:50.414Z,100355.67
2018-12-25T14:42:23.493Z,100356.45
2018-12-25T14:44:56.426Z,100367.86
2018-12-25T14:47:29.480Z,100355.31
2018-12-25T14:50:02.480Z,100356.34
2018-12-25T14:52:35.963Z,100360.07
2018-12-25T14:55:08.773Z,100364.95
2018-12-25T14:57:41.698Z,100361.58
2018-12-25T15:00:15.225Z,100361.17
2018-12-25T15:02:48.365Z,100361.17
2018-12-25T15:05:21.484Z,100362.23
2018-12-25T15:07:54.605Z,100367.47
2018-12-25T15:10:27.597Z,100365.96
2018-12-25T15:13:00.913Z,100371.41
2018-12-25T15:15:34.035Z,100371.80
2018-12-25T15:18:06.975Z,100358.42
2018-12-25T15:20:39.794Z,100363.77
2018-12-25T15:23:12.847Z,100368.43
2018-12-25T15:25:45.840Z,100366.73
2018-12-25T15:28:18.724Z,100374.80
2018-12-25T15:30:51.586Z,100364.12
2018-12-25T15:33:24.598Z,100372.10
2018-12-25T15:35:57.885Z,100373.88
2018-12-25T15:38:30.785Z,100378.53
2018-12-25T15:41:03.961Z,100374.34
2018-12-25T15:43:36.906Z,100378.53
2018-12-25T15:46:09.671Z,100378.82
2018-12-25T15:48:42.255Z,100378.18
2018-12-25T15:51:15.357Z,100379.02
2018-12-25T15:53:50.392Z,100383.41
2018-12-25T15:56:23.176Z,100381.42
2018-12-25T15:58:56.343Z,100384.63
2018-12-25T16:01:29.258Z,100380.33
2018-12-25T16:04:02.332Z,100380.89
2018-12-25T16:06:35.288Z,100380.33
2018-12-25T16:09:09.481Z,100387.52
2018-12-25T16:11:42.575Z,100387.81
2018-12-25T16:14:15.578Z,100384.71
2018-12-25T16:16:48.511Z,100375.72
2018-12-25T16:19:21.447Z,100384.44
2018-12-25T16:21:54.482Z,100382.36
2018-12-25T16:24:27.782Z,100383.40
2018-12-25T16:27:02.691Z,100385.15
2018-12-25T16:29:35.738Z,100380.39
2018-12-25T16:32:08.937Z,100388.70
2018-12-25T16:34:41.594Z,100392.34
2018-12-25T16:37:14.707Z,100387.60
2018-12-25T16:39:47.889Z,100395.09
2018-12-25T16:42:21.011Z,100389.92
2018-12-25T16:44:54.136Z,100389.94
2018-12-25T16:47:27.627Z,100388.34
2018-12-25T16:50:00.660Z,100396.53
2018-12-25T16:52:33.978Z,100396.53
2018-12-25T16:55:07.082Z,100394.77
2018-12-25T16:57:40.218Z,100405.33
2018-12-25T17:00:13.347Z,100405.33
2018-12-25T17:02:46.981Z,100407.02
2018-12-25T17:05:20.213Z,100400.73
2018-12-25T17:07:53.576Z,100407.73
2018-12-25T17:10:26.891Z,100408.58
2018-12-25T17:12:59.853Z,100408.58
2018-12-25T17:15:32.785Z,100415.59
2018-12-25T17:18:05.917Z,100415.59
2018-12-25T17:20:38.880Z,100418.88
2018-12-25T17:23:11.954Z,100412.05
2018-12-25T17:25:45.812Z,100418.64
2018-12-25T17:28:18.799Z,100424.39
2018-12-25T17:30:51.895Z,100424.39
2018-12-25T17:33:24.859Z,100420.52
2018-12-25T17:35:58.214Z,100435.97
2018-12-25T17:38:31.460Z,100435.97
2018-12-25T17:41:07.801Z,100433.05
2018-12-25T17:43:40.946Z,100433.05
2018-12-25T17:46:14.492Z,100428.52
2018-12-25T17:49:16.695Z,100428.52
2018-12-25T17:51:50.320Z,100434.73
2018-12-25T17:54:23.464Z,100434.73
2018-12-25T17:57:56.597Z,100424.24
2018-12-25T18:00:34.184Z,100424.24
2018-12-25T18:03:07.535Z,100433.63
2018-12-25T18:05:41.060Z,100435.90
2018-12-25T18:08:14.206Z,100425.42
2018-12-25T18:10:47.192Z,100425.42
2018-12-25T18:13:20.210Z,100420.17
2018-12-25T18:15:53.320Z,100424.66
2018-12-25T18:18:26.782Z,100427.70
2018-12-25T18:20:59.992Z,100427.70
2018-12-25T18:23:33.087Z,100416.98
2018-12-25T18:26:06.189Z,100414.90
2018-12-25T18:28:39.328Z,100412.78
2018-12-25T18:31:12.372Z,100420.70
2018-12-25T18:33:45.546Z,100428.86
2018-12-25T18:36:18.547Z,100426.55
2018-12-25T18:38:51.783Z,100428.53
2018-12-25T18:41:26.649Z,100428.53
2018-12-25T18:46:50.593Z,100430.09
2018-12-25T18:49:23.632Z,100425.09
2018-12-25T18:51:56.882Z,100419.47
2018-12-25T18:54:30.167Z,100426.16
2018-12-25T18:57:22.235Z,100423.55
2018-12-25T18:59:55.302Z,100422.89
2018-12-25T19:02:28.676Z,100424.48
2018-12-25T19:05:01.536Z,100427.94
2018-12-25T19:07:34.855Z,100420.09
2018-12-25T19:10:09.919Z,100417.09
2018-12-25T19:12:43.191Z,100417.78
2018-12-25T19:15:24.003Z,100423.86
2018-12-25T19:17:57.025Z,100416.09
2018-12-25T19:20:31.050Z,100412.16
2018-12-25T19:23:04.555Z,100412.27
2018-12-25T19:25:37.798Z,100408.06
2018-12-25T19:28:20.515Z,100410.51
2018-12-25T19:30:56.637Z,100408.89
2018-12-25T19:33:29.770Z,100404.83
2018-12-25T19:38:44.891Z,100411.20
2018-12-25T19:41:18.037Z,100397.56
2018-12-25T19:43:51.228Z,100402.58
2018-12-25T19:46:24.631Z,100400.67
2018-12-25T19:48:57.705Z,100395.98
2018-12-25T19:51:32.616Z,100392.39
2018-12-25T19:54:05.486Z,100385.86
2018-12-25T19:56:46.213Z,100388.11
2018-12-25T19:59:19.303Z,100388.85
2018-12-25T20:01:52.376Z,100387.55
2018-12-25T20:04:28.206Z,100396.27
2018-12-25T20:07:37.394Z,100389.52
2018-12-25T20:10:45.234Z,100385.25
2018-12-25T20:13:46.609Z,100382.07
2018-12-25T20:16:34.640Z,100379.95
2018-12-25T20:19:18.927Z,100382.27
2018-12-25T20:22:23.009Z,100382.69
2018-12-25T20:25:20.039Z,100381.59
2018-12-25T20:28:28.992Z,100383.30
2018-12-25T20:31:30.182Z,100374.01
2018-12-25T20:34:21.242Z,100376.95
2018-12-25T20:37:34.786Z,100376.80
2018-12-25T20:40:39.094Z,100372.56
2018-12-25T20:43:36.107Z,100373.70
2018-12-25T20:47:01.292Z,100373.52
2018-12-25T20:50:03.159Z,100376.05
2018-12-25T20:53:17.913Z,100378.56
2018-12-25T20:59:19.711Z,100354.98
2018-12-25T21:02:19.381Z,100356.16
2018-12-25T21:05:19.113Z,100355.08
2018-12-25T21:08:09.792Z,100373.44
2018-12-25T21:11:28.672Z,100357.64
2018-12-25T21:14:42.644Z,100364.41
2018-12-25T21:17:32.528Z,100351.57
2018-12-25T21:20:32.441Z,100350.73
2018-12-25T21:23:57.668Z,100351.38
2018-12-25T21:27:23.003Z,100345.17
2018-12-25T21:29:56.260Z,100347.20
2018-12-25T21:32:30.081Z,100357.97
2018-12-25T21:38:17.066Z,100361.69
2018-12-25T21:40:50.386Z,100352.23
2018-12-25T21:43:23.787Z,100346.69
2018-12-25T21:45:57.332Z,100337.83
2018-12-25T21:48:30.739Z,100356.61
2018-12-25T21:51:07.274Z,100346.84
2018-12-25T21:53:43.954Z,100343.64
2018-12-25T21:56:17.407Z,100344.18
2018-12-25T21:58:50.451Z,100343.69
2018-12-25T22:01:24.798Z,100345.06
2018-12-25T22:03:58.036Z,100346.23
2018-12-25T22:06:32.779Z,100338.98
2018-12-25T22:09:06.753Z,100337.12
2018-12-25T22:11:39.801Z,100341.61
2018-12-25T22:14:15.793Z,100334.30
2018-12-25T22:16:50.019Z,100336.97
2018-12-25T22:19:23.040Z,100345.33
2018-12-25T22:21:56.278Z,100333.06
2018-12-25T22:24:29.592Z,100341.42
2018-12-25T22:27:02.883Z,100340.32
2018-12-25T22:29:36.353Z,100341.99
2018-12-25T22:32:09.994Z,100342.87
2018-12-25T22:34:43.224Z,100347.01
2018-12-25T22:37:16.209Z,100351.55
2018-12-25T22:39:49.466Z,100352.71
2018-12-25T22:42:22.659Z,100347.04
2018-12-25T22:44:55.604Z,100353.28
2018-12-25T22:47:28.561Z,100352.79
2018-12-25T22:50:01.597Z,100352.79
2018-12-25T22:52:34.496Z,100362.63
2018-12-25T22:55:08.915Z,100358.87
2018-12-25T22:57:42.581Z,100349.66
2018-12-25T23:00:15.904Z,100346.02
2018-12-25T23:02:48.969Z,100348.95
2018-12-25T23:05:22.009Z,100347.42
2018-12-25T23:07:55.177Z,100347.42
2018-12-25T23:10:28.343Z,100346.41
2018-12-25T23:13:01.478Z,100344.15
2018-12-25T23:15:34.924Z,100338.55
2018-12-25T23:18:08.138Z,100343.66
2018-12-25T23:20:41.704Z,100352.79
2018-12-25T23:23:14.914Z,100356.09
2018-12-25T23:25:48.104Z,100349.19
2018-12-25T23:28:21.186Z,100349.34
2018-12-25T23:30:54.679Z,100354.94
2018-12-25T23:33:27.637Z,100362.94
2018-12-25T23:36:01.986Z,100347.67
2018-12-25T23:38:35.204Z,100347.67
2018-12-25T23:41:08.203Z,100354.02
2018-12-25T23:43:41.092Z,100360.19
2018-12-25T23:46:14.059Z,100363.86
2018-12-25T23:48:46.964Z,100364.91
2018-12-25T23:51:20.401Z,100364.91
2018-12-25T23:53:53.585Z,100365.63
2018-12-25T23:56:27.357Z,100360.66
2018-12-25T23:59:00.617Z,100360.66
